createdAt,value
2022-08-05T00:00:46.462Z,93.21
2022-08-05T00:03:18.117Z,93.04
2022-08-05T00:06:06.403Z,92.74
2022-08-05T00:08:36.191Z,92.92
2022-08-05T00:11:07.531Z,93.09
2022-08-05T00:13:53.176Z,92.82
2022-08-05T00:16:35.437Z,93.12
2022-08-05T00:19:05.537Z,93.86
2022-08-05T00:21:35.623Z,93.97
2022-08-05T00:24:10.436Z,94.57
2022-08-05T00:26:39.528Z,95.09
2022-08-05T00:29:18.659Z,95.53
2022-08-05T00:32:10.603Z,95.43
2022-08-05T00:34:55.705Z,95.93
2022-08-05T00:37:35.583Z,96.50
2022-08-05T00:40:17.930Z,96.50
2022-08-05T00:42:55.468Z,96.88
2022-08-05T00:45:28.407Z,97.79
2022-08-05T00:48:10.144Z,98.19
2022-08-05T00:50:39.138Z,98.97
2022-08-05T00:53:59.895Z,99.67
2022-08-05T00:55:58.557Z,100.00
2022-08-05T00:58:27.321Z,100.00
2022-08-05T01:00:56.229Z,100.00
2022-08-05T01:03:30.758Z,100.00
2022-08-05T01:06:02.601Z,100.00
2022-08-05T01:08:43.958Z,100.00
2022-08-05T01:11:22.535Z,100.00
2022-08-05T01:14:08.783Z,100.00
2022-08-05T01:16:50.367Z,100.00
2022-08-05T01:20:01.764Z,100.00
2022-08-05T01:22:48.586Z,100.00
2022-08-05T01:25:42.516Z,100.00
2022-08-05T01:28:37.315Z,100.00
2022-08-05T01:31:12.251Z,100.00
2022-08-05T01:33:49.339Z,100.00
2022-08-05T01:36:28.406Z,100.00
2022-08-05T01:39:01.221Z,100.00
2022-08-05T01:41:33.937Z,99.58
2022-08-05T01:44:09.988Z,99.73
2022-08-05T01:46:46.840Z,99.63
2022-08-05T01:49:22.940Z,99.82
2022-08-05T01:51:53.303Z,98.77
2022-08-05T01:54:25.589Z,98.43
2022-08-05T01:58:29.495Z,97.52
2022-08-05T01:59:47.939Z,97.50
2022-08-05T02:02:17.435Z,98.21
2022-08-05T02:04:49.495Z,97.84
2022-08-05T02:07:22.200Z,98.53
2022-08-05T02:09:51.262Z,99.61
2022-08-05T02:12:27.141Z,99.81
2022-08-05T02:15:04.655Z,100.00
2022-08-05T02:18:31.909Z,100.00
2022-08-05T02:20:48.761Z,100.00
2022-08-05T02:23:22.531Z,100.00
2022-08-05T02:25:53.485Z,100.00
2022-08-05T02:28:29.378Z,100.00
2022-08-05T02:31:04.115Z,100.00
2022-08-05T02:33:38.934Z,100.00
2022-08-05T02:36:13.727Z,100.00
2022-08-05T02:38:53.545Z,100.00
2022-08-05T02:41:28.821Z,100.00
2022-08-05T02:44:11.911Z,100.00
2022-08-05T02:46:59.720Z,100.00
2022-08-05T02:49:36.529Z,100.00
2022-08-05T02:52:09.506Z,100.00
2022-08-05T02:54:42.699Z,100.00
2022-08-05T02:58:20.519Z,100.00
2022-08-05T03:00:10.629Z,100.00
2022-08-05T03:02:42.946Z,100.00
2022-08-05T03:05:13.543Z,100.00
2022-08-05T03:08:00.457Z,100.00
2022-08-05T03:10:30.937Z,100.00
2022-08-05T03:15:26.174Z,100.00
2022-08-05T03:18:08.326Z,100.00
2022-08-05T03:20:37.721Z,100.00
2022-08-05T03:23:13.419Z,100.00
2022-08-05T03:26:04.779Z,100.00
2022-08-05T03:28:30.947Z,100.00
2022-08-05T03:31:00.750Z,100.00
2022-08-05T03:33:51.156Z,100.00
2022-08-05T03:36:28.006Z,100.00
2022-08-05T03:38:59.131Z,100.00
2022-08-05T03:41:33.236Z,100.00
2022-08-05T03:44:11.336Z,100.00
2022-08-05T03:46:40.228Z,100.00
2022-08-05T03:49:10.795Z,100.00
2022-08-05T03:52:39.167Z,100.00
2022-08-05T03:55:51.989Z,100.00
2022-08-05T03:57:42.425Z,100.00
2022-08-05T04:00:15.972Z,100.00
2022-08-05T04:02:58.753Z,100.00
2022-08-05T04:05:33.566Z,100.00
2022-08-05T04:08:05.488Z,100.00
2022-08-05T04:10:38.131Z,100.00
2022-08-05T04:13:08.616Z,100.00
2022-08-05T04:15:37.301Z,100.00
2022-08-05T04:18:09.461Z,100.00
2022-08-05T04:20:41.346Z,100.00
2022-08-05T04:23:12.247Z,100.00
2022-08-05T04:26:00.180Z,100.00
2022-08-05T04:28:31.649Z,100.00
2022-08-05T04:31:01.475Z,100.00
2022-08-05T04:33:54.829Z,100.00
2022-08-05T04:36:50.254Z,100.00
2022-08-05T04:39:08.058Z,100.00
2022-08-05T04:41:37.789Z,100.00
2022-08-05T04:44:09.385Z,100.00
2022-08-05T04:46:38.804Z,100.00
2022-08-05T04:49:12.168Z,100.00
2022-08-05T04:51:44.611Z,100.00
2022-08-05T04:54:14.865Z,100.00
2022-08-05T04:56:44.592Z,99.39
2022-08-05T04:59:21.770Z,98.57
2022-08-05T05:02:07.155Z,97.48
2022-08-05T05:04:43.888Z,98.09
2022-08-05T05:07:17.460Z,98.86
2022-08-05T05:09:45.799Z,99.19
2022-08-05T05:12:15.901Z,99.58
2022-08-05T05:14:50.912Z,99.73
2022-08-05T05:17:56.729Z,99.58
2022-08-05T05:20:33.840Z,99.31
2022-08-05T05:23:08.227Z,99.62
2022-08-05T05:25:47.857Z,98.83
2022-08-05T05:28:15.997Z,99.43
2022-08-05T05:30:44.146Z,100.00
2022-08-05T05:33:23.487Z,99.36
2022-08-05T05:35:51.807Z,98.86
2022-08-05T05:38:26.809Z,97.91
2022-08-05T05:40:56.266Z,96.37
2022-08-05T05:43:58.200Z,95.83
2022-08-05T05:46:19.257Z,93.33
2022-08-05T05:48:49.890Z,93.15
2022-08-05T05:51:50.544Z,91.94
2022-08-05T05:54:22.152Z,91.46
2022-08-05T05:57:13.704Z,90.71
2022-08-05T05:59:47.336Z,90.42
2022-08-05T06:02:17.187Z,89.31
2022-08-05T06:05:01.410Z,88.71
2022-08-05T06:07:41.774Z,89.07
2022-08-05T06:10:12.606Z,89.06
2022-08-05T06:12:42.353Z,89.67
2022-08-05T06:15:23.742Z,90.10
2022-08-05T06:17:54.721Z,90.26
2022-08-05T06:20:23.587Z,91.20
2022-08-05T06:22:51.605Z,91.54
2022-08-05T06:25:59.804Z,91.57
2022-08-05T06:28:21.239Z,91.32
2022-08-05T06:30:50.131Z,91.67
2022-08-05T06:33:19.061Z,91.50
2022-08-05T06:36:03.963Z,91.18
2022-08-05T06:38:36.805Z,91.36
2022-08-05T06:41:08.133Z,91.60
2022-08-05T06:43:58.072Z,91.48
2022-08-05T06:46:30.009Z,93.59
2022-08-05T06:49:00.822Z,92.96
2022-08-05T06:51:30.993Z,93.64
2022-08-05T06:54:00.119Z,94.10
2022-08-05T06:56:34.354Z,94.82
2022-08-05T06:59:03.183Z,94.96
2022-08-05T07:01:32.320Z,95.44
2022-08-05T07:04:02.371Z,95.49
2022-08-05T07:06:31.751Z,94.54
2022-08-05T07:09:03.834Z,93.88
2022-08-05T07:11:37.155Z,93.92
2022-08-05T07:14:29.729Z,94.17
2022-08-05T07:18:08.485Z,94.28
2022-08-05T07:22:42.682Z,93.97
2022-08-05T07:25:54.489Z,93.93
2022-08-05T07:28:05.337Z,93.99
2022-08-05T07:30:39.865Z,93.37
2022-08-05T07:33:15.730Z,93.26
2022-08-05T07:36:02.606Z,92.43
2022-08-05T07:38:42.602Z,92.48
2022-08-05T07:42:06.798Z,89.57
2022-08-05T07:44:04.149Z,90.08
2022-08-05T07:46:33.792Z,88.84
2022-08-05T07:49:05.864Z,89.28
2022-08-05T07:51:48.663Z,90.06
2022-08-05T07:54:34.091Z,88.99
2022-08-05T07:57:17.644Z,88.91
2022-08-05T08:00:01.866Z,86.58
2022-08-05T08:03:14.084Z,85.20
2022-08-05T08:05:26.375Z,83.99
2022-08-05T08:08:00.256Z,84.97
2022-08-05T08:10:28.884Z,84.94
2022-08-05T08:13:01.504Z,85.04
2022-08-05T08:16:33.252Z,85.05
2022-08-05T08:18:20.993Z,84.61
2022-08-05T08:21:02.179Z,85.41
2022-08-05T08:24:01.970Z,86.56
2022-08-05T08:26:29.674Z,87.27
2022-08-05T08:28:59.813Z,88.14
2022-08-05T08:31:48.236Z,88.63
2022-08-05T08:34:16.616Z,88.93
2022-08-05T08:36:54.665Z,89.54
2022-08-05T08:39:24.945Z,89.57
2022-08-05T08:41:58.650Z,90.38
2022-08-05T08:45:22.542Z,90.79
2022-08-05T08:48:06.618Z,91.03
2022-08-05T08:50:32.966Z,89.37
2022-08-05T08:53:12.364Z,88.66
2022-08-05T08:56:03.766Z,87.58
2022-08-05T08:58:43.005Z,87.94
2022-08-05T09:01:16.618Z,87.99
2022-08-05T09:03:48.360Z,87.95
2022-08-05T09:06:40.276Z,87.16
2022-08-05T09:09:09.346Z,87.84
2022-08-05T09:11:51.005Z,88.26
2022-08-05T09:14:57.029Z,89.88
2022-08-05T09:17:40.828Z,91.45
2022-08-05T09:20:05.544Z,96.07
2022-08-05T09:23:09.529Z,97.13
2022-08-05T09:26:03.068Z,98.09
2022-08-05T09:28:39.506Z,98.14
2022-08-05T09:31:22.230Z,97.01
2022-08-05T09:33:59.714Z,98.56
2022-08-05T09:36:54.096Z,99.16
2022-08-05T09:39:27.552Z,99.97
2022-08-05T09:42:07.947Z,100.00
2022-08-05T09:44:38.597Z,100.00
2022-08-05T09:47:15.432Z,100.00
2022-08-05T09:50:00.649Z,100.00
2022-08-05T09:52:34.397Z,100.00
2022-08-05T09:55:55.476Z,100.00
2022-08-05T09:57:54.689Z,100.00
2022-08-05T10:00:27.639Z,100.00
2022-08-05T10:02:58.052Z,100.00
2022-08-05T10:05:28.977Z,100.00
2022-08-05T10:08:35.880Z,100.00
2022-08-05T10:11:04.691Z,100.00
2022-08-05T10:13:43.978Z,100.00
2022-08-05T10:16:41.903Z,100.00
2022-08-05T10:19:23.791Z,100.00
2022-08-05T10:22:00.131Z,100.00
2022-08-05T10:24:33.375Z,100.00
2022-08-05T10:27:07.880Z,100.00
2022-08-05T10:30:41.365Z,100.00
2022-08-05T10:32:52.054Z,100.00
2022-08-05T10:35:14.383Z,100.00
2022-08-05T10:37:44.941Z,100.00
2022-08-05T10:40:27.923Z,100.00
2022-08-05T10:43:02.566Z,100.00
2022-08-05T10:45:40.030Z,100.00
2022-08-05T10:48:52.343Z,100.00
2022-08-05T10:51:29.057Z,100.00
2022-08-05T10:54:01.668Z,100.00
2022-08-05T10:57:03.548Z,100.00
2022-08-05T11:00:03.062Z,100.00
2022-08-05T11:02:34.593Z,100.00
2022-08-05T11:05:07.358Z,100.00
2022-08-05T11:08:02.439Z,100.00
2022-08-05T11:10:37.131Z,100.00
2022-08-05T11:13:09.366Z,100.00
2022-08-05T11:16:47.395Z,100.00
2022-08-05T11:20:10.665Z,100.00
2022-08-05T11:22:42.130Z,100.00
2022-08-05T11:26:04.762Z,100.00
2022-08-05T11:28:58.731Z,100.00
2022-08-05T11:31:56.930Z,100.00
2022-08-05T11:34:59.933Z,100.00
2022-08-05T11:38:29.106Z,100.00
2022-08-05T11:41:35.040Z,100.00
2022-08-05T11:44:08.099Z,100.00
2022-08-05T11:47:09.829Z,100.00
2022-08-05T11:49:27.130Z,100.00
2022-08-05T11:51:57.594Z,100.00
2022-08-05T11:54:32.925Z,100.00
2022-08-05T11:57:08.288Z,100.00
2022-08-05T11:59:58.708Z,100.00
2022-08-05T12:02:32.928Z,100.00
2022-08-05T12:05:07.327Z,100.00
2022-08-05T12:08:08.073Z,100.00
2022-08-05T12:10:38.660Z,100.00
2022-08-05T12:13:27.661Z,100.00
2022-08-05T12:16:15.637Z,100.00
2022-08-05T12:18:49.367Z,100.00
2022-08-05T12:21:24.130Z,100.00
2022-08-05T12:24:04.271Z,100.00
2022-08-05T12:26:34.277Z,100.00
2022-08-05T12:29:03.255Z,100.00
2022-08-05T12:31:46.305Z,100.00
2022-08-05T12:34:21.466Z,100.00
2022-08-05T12:37:10.700Z,100.00
2022-08-05T12:39:40.350Z,100.00
2022-08-05T12:42:15.261Z,100.00
2022-08-05T12:44:44.683Z,100.00
2022-08-05T12:47:25.530Z,100.00
2022-08-05T12:50:03.449Z,100.00
2022-08-05T12:52:59.247Z,100.00
2022-08-05T12:55:32.893Z,100.00
2022-08-05T12:58:52.741Z,100.00
2022-08-05T13:02:03.285Z,100.00
2022-08-05T13:03:45.408Z,100.00
2022-08-05T13:06:16.786Z,100.00
2022-08-05T13:09:08.771Z,100.00
2022-08-05T13:12:01.275Z,100.00
2022-08-05T13:14:36.847Z,100.00
2022-08-05T13:17:10.352Z,100.00
2022-08-05T13:19:52.268Z,100.00
2022-08-05T13:22:28.557Z,100.00
2022-08-05T13:25:05.203Z,100.00
2022-08-05T13:27:41.035Z,100.00
2022-08-05T13:30:34.658Z,100.00
2022-08-05T13:33:01.588Z,100.00
2022-08-05T13:35:47.531Z,100.00
2022-08-05T13:38:34.183Z,100.00
2022-08-05T13:41:05.936Z,99.89
2022-08-05T13:43:43.990Z,100.00
2022-08-05T13:46:14.884Z,100.00
2022-08-05T13:49:00.935Z,100.00
2022-08-05T13:51:40.078Z,100.00
2022-08-05T13:54:12.278Z,100.00
2022-08-05T13:56:45.048Z,100.00
2022-08-05T13:59:21.329Z,100.00
2022-08-05T14:01:58.313Z,100.00
2022-08-05T14:04:50.154Z,100.00
2022-08-05T14:07:26.204Z,100.00
2022-08-05T14:10:12.917Z,100.00
2022-08-05T14:12:48.606Z,99.46
2022-08-05T14:16:05.754Z,100.00
2022-08-05T14:18:06.521Z,100.00
2022-08-05T14:20:54.863Z,100.00
2022-08-05T14:23:26.434Z,100.00
2022-08-05T14:25:58.542Z,100.00
2022-08-05T14:28:28.006Z,100.00
2022-08-05T14:30:56.615Z,100.00
2022-08-05T14:33:24.761Z,100.00
2022-08-05T14:35:54.945Z,100.00
2022-08-05T14:38:31.883Z,99.97
2022-08-05T14:41:06.034Z,100.00
2022-08-05T14:43:57.540Z,100.00
2022-08-05T14:46:29.052Z,99.37
2022-08-05T14:49:06.282Z,97.15
2022-08-05T14:51:35.872Z,95.08
2022-08-05T14:54:29.905Z,95.67
2022-08-05T14:56:56.187Z,93.51
2022-08-05T14:59:24.164Z,90.88
2022-08-05T15:01:53.724Z,90.12
2022-08-05T15:04:24.519Z,91.44
2022-08-05T15:06:57.083Z,92.21
2022-08-05T15:09:52.561Z,92.89
2022-08-05T15:12:16.985Z,93.17
2022-08-05T15:14:49.861Z,93.98
2022-08-05T15:17:47.270Z,89.66
2022-08-05T15:20:18.687Z,87.14
2022-08-05T15:22:53.995Z,87.69
2022-08-05T15:25:41.378Z,90.41
2022-08-05T15:28:15.783Z,88.67
2022-08-05T15:30:52.879Z,86.87
2022-08-05T15:33:56.922Z,87.85
2022-08-05T15:36:17.862Z,87.17
2022-08-05T15:40:59.733Z,87.38
2022-08-05T15:41:56.156Z,87.44
2022-08-05T15:44:27.538Z,87.25
2022-08-05T15:46:55.973Z,88.38
2022-08-05T15:49:53.555Z,86.97
2022-08-05T15:52:29.571Z,86.15
2022-08-05T15:55:02.198Z,82.10
2022-08-05T15:57:33.110Z,81.47
2022-08-05T16:00:04.119Z,82.01
2022-08-05T16:02:32.526Z,81.60
2022-08-05T16:05:03.279Z,81.12
2022-08-05T16:07:34.465Z,78.44
2022-08-05T16:10:03.479Z,73.20
2022-08-05T16:12:33.109Z,71.81
2022-08-05T16:15:02.233Z,73.09
2022-08-05T16:17:32.304Z,71.56
2022-08-05T16:20:05.014Z,72.39
2022-08-05T16:22:35.906Z,73.47
2022-08-05T16:25:09.388Z,74.49
2022-08-05T16:28:00.925Z,75.05
2022-08-05T16:30:29.044Z,77.60
2022-08-05T16:33:00.523Z,76.99
2022-08-05T16:35:32.346Z,78.11
2022-08-05T16:38:16.768Z,77.79
2022-08-05T16:42:12.289Z,78.36
2022-08-05T16:43:57.555Z,80.24
2022-08-05T16:46:25.660Z,79.30
2022-08-05T16:48:53.629Z,80.66
2022-08-05T16:51:23.750Z,79.99
2022-08-05T16:54:06.074Z,80.77
2022-08-05T16:56:43.115Z,80.67
2022-08-05T16:59:15.655Z,78.01
2022-08-05T17:01:54.950Z,75.52
2022-08-05T17:04:26.500Z,72.88
2022-08-05T17:06:55.692Z,69.83
2022-08-05T17:09:28.460Z,67.36
2022-08-05T17:12:00.001Z,67.12
2022-08-05T17:14:37.022Z,64.89
2022-08-05T17:17:14.280Z,62.94
2022-08-05T17:19:45.594Z,63.06
2022-08-05T17:22:17.880Z,64.33
2022-08-05T17:24:57.691Z,66.08
2022-08-05T17:27:34.472Z,67.28
2022-08-05T17:30:12.100Z,67.54
2022-08-05T17:32:58.813Z,70.67
2022-08-05T17:35:32.655Z,70.63
2022-08-05T17:38:17.516Z,73.56
2022-08-05T17:40:45.711Z,70.59
2022-08-05T17:43:15.618Z,71.59
2022-08-05T17:45:45.792Z,73.89
2022-08-05T17:48:13.767Z,71.28
2022-08-05T17:50:44.036Z,77.59
2022-08-05T17:53:12.069Z,72.75
2022-08-05T17:55:40.321Z,73.90
2022-08-05T17:58:11.043Z,74.94
2022-08-05T18:00:39.926Z,74.34
2022-08-05T18:03:55.842Z,75.26
2022-08-05T18:06:12.215Z,76.79
2022-08-05T18:08:44.836Z,72.01
2022-08-05T18:11:24.652Z,72.43
2022-08-05T18:14:03.657Z,73.73
2022-08-05T18:16:35.484Z,72.69
2022-08-05T18:19:23.020Z,78.46
2022-08-05T18:22:09.725Z,72.04
2022-08-05T18:24:40.066Z,71.54
2022-08-05T18:27:18.197Z,72.93
2022-08-05T18:29:53.703Z,74.67
2022-08-05T18:32:27.804Z,75.93
2022-08-05T18:35:01.251Z,79.76
2022-08-05T18:37:34.581Z,73.57
2022-08-05T18:40:34.592Z,81.20
2022-08-05T18:42:57.985Z,76.23
2022-08-05T18:45:41.732Z,73.76
2022-08-05T18:48:17.502Z,77.89
2022-08-05T18:52:02.683Z,76.97
2022-08-05T18:54:06.890Z,75.44
2022-08-05T18:56:37.195Z,75.04
2022-08-05T18:59:41.892Z,77.99
2022-08-05T19:01:58.443Z,74.13
2022-08-05T19:04:27.475Z,76.21
2022-08-05T19:06:56.931Z,75.65
2022-08-05T19:09:25.096Z,75.29
2022-08-05T19:11:59.554Z,74.02
2022-08-05T19:14:59.313Z,74.77
2022-08-05T19:17:17.920Z,81.22
2022-08-05T19:19:48.667Z,76.20
2022-08-05T19:22:18.457Z,81.37
2022-08-05T19:25:00.761Z,79.27
2022-08-05T19:27:30.928Z,85.71
2022-08-05T19:29:59.378Z,81.95
2022-08-05T19:32:27.748Z,84.01
2022-08-05T19:34:56.334Z,82.32
2022-08-05T19:37:34.829Z,84.93
2022-08-05T19:40:17.429Z,84.19
2022-08-05T19:43:04.502Z,86.69
2022-08-05T19:45:37.022Z,83.14
2022-08-05T19:48:06.213Z,85.45
2022-08-05T19:50:35.182Z,87.52
2022-08-05T19:53:09.690Z,83.59
2022-08-05T19:56:15.738Z,83.31
2022-08-05T19:58:29.211Z,84.68
2022-08-05T20:00:58.006Z,86.69
2022-08-05T20:03:27.463Z,87.04
2022-08-05T20:06:15.678Z,83.09
2022-08-05T20:08:47.632Z,82.47
2022-08-05T20:11:18.055Z,83.44
2022-08-05T20:13:58.525Z,87.24
2022-08-05T20:16:41.274Z,82.52
2022-08-05T20:19:11.558Z,86.06
2022-08-05T20:21:44.675Z,81.97
2022-08-05T20:24:14.646Z,83.79
2022-08-05T20:26:44.314Z,83.18
2022-08-05T20:29:26.638Z,81.18
2022-08-05T20:31:58.227Z,85.98
2022-08-05T20:34:27.782Z,84.96
2022-08-05T20:36:55.866Z,88.33
2022-08-05T20:39:25.813Z,84.33
2022-08-05T20:42:03.782Z,85.94
2022-08-05T20:44:37.849Z,85.60
2022-08-05T20:47:07.750Z,85.04
2022-08-05T20:49:47.713Z,86.37
2022-08-05T20:52:19.316Z,84.77
2022-08-05T20:54:59.077Z,89.03
2022-08-05T20:57:42.084Z,84.73
2022-08-05T21:00:41.232Z,87.09
2022-08-05T21:03:07.202Z,89.07
2022-08-05T21:05:53.606Z,87.61
2022-08-05T21:08:33.160Z,86.61
2022-08-05T21:11:12.016Z,85.03
2022-08-05T21:13:47.745Z,86.33
2022-08-05T21:16:29.692Z,86.14
2022-08-05T21:19:00.392Z,84.76
2022-08-05T21:21:39.786Z,86.15
2022-08-05T21:24:15.525Z,87.41
2022-08-05T21:27:00.476Z,87.52
2022-08-05T21:29:31.352Z,92.65
2022-08-05T21:32:00.593Z,92.29
2022-08-05T21:34:28.656Z,91.80
2022-08-05T21:36:59.836Z,88.39
2022-08-05T21:39:28.183Z,91.15
2022-08-05T21:42:02.315Z,85.82
2022-08-05T21:44:30.991Z,89.32
2022-08-05T21:47:00.015Z,88.02
2022-08-05T21:49:48.205Z,89.96
2022-08-05T21:52:27.749Z,90.21
2022-08-05T21:54:56.585Z,85.46
2022-08-05T21:57:31.572Z,87.30
2022-08-05T22:00:06.207Z,86.84
2022-08-05T22:02:35.294Z,85.40
2022-08-05T22:05:04.558Z,85.03
2022-08-05T22:07:40.053Z,84.62
2022-08-05T22:10:26.586Z,83.63
2022-08-05T22:13:08.575Z,87.80
2022-08-05T22:16:00.382Z,84.52
2022-08-05T22:18:27.064Z,82.96
2022-08-05T22:20:55.895Z,84.59
2022-08-05T22:24:02.160Z,85.58
2022-08-05T22:26:55.703Z,87.21
2022-08-05T22:29:32.876Z,88.16
2022-08-05T22:32:03.151Z,85.40
2022-08-05T22:34:32.106Z,84.62
2022-08-05T22:37:00.637Z,87.70
2022-08-05T22:39:33.836Z,86.63
2022-08-05T22:42:10.916Z,83.45
2022-08-05T22:44:42.495Z,86.29
2022-08-05T22:47:28.972Z,88.85
2022-08-05T22:50:19.081Z,88.02
2022-08-05T22:52:47.224Z,84.45
2022-08-05T22:55:18.943Z,85.40
2022-08-05T22:57:49.811Z,87.24
2022-08-05T23:00:21.985Z,88.03
2022-08-05T23:02:50.974Z,87.24
2022-08-05T23:05:21.874Z,86.04
2022-08-05T23:07:50.702Z,85.44
2022-08-05T23:10:19.552Z,88.68
2022-08-05T23:12:51.152Z,84.47
2022-08-05T23:15:38.231Z,86.70
2022-08-05T23:18:16.001Z,85.62
2022-08-05T23:20:44.155Z,85.67
2022-08-05T23:23:12.314Z,84.07
2022-08-05T23:25:52.568Z,88.99
2022-08-05T23:28:23.013Z,86.66
2022-08-05T23:30:54.772Z,84.47
2022-08-05T23:33:26.346Z,85.52
2022-08-05T23:36:13.817Z,87.53
2022-08-05T23:38:42.815Z,89.07
2022-08-05T23:41:11.878Z,90.24
2022-08-05T23:44:05.954Z,88.03
2022-08-05T23:46:46.323Z,89.39
2022-08-05T23:49:17.043Z,89.50
2022-08-05T23:52:07.876Z,88.05
2022-08-05T23:54:38.384Z,86.97
2022-08-05T23:57:08.450Z,86.07
